Time;durP1;ratioP1;P1;durP2;ratioP2;P2;SDS_P1;SDS_P2;PMS_P1;PMS_P2;Temp;Humidity;BMP_temperature;BMP_pressure;BME280_temperature;BME280_humidity;BME280_pressure;Samples;Min_cycle;Max_cycle;Signal;HPM_P1;HPM_P2
2022/08/19 00:01:32;;;;;;;0.00;0.00;;;19.00;99.90;;;;;;5033076;28;20019;-76
2022/08/19 00:04:00;;;;;;;0.10;0.10;;;19.10;99.90;;;;;;5033153;28;20113;-76
2022/08/19 00:06:28;;;;;;;0.00;0.00;;;19.30;99.90;;;;;;5031711;28;20071;-76
2022/08/19 00:08:55;;;;;;;0.10;0.10;;;19.40;99.90;;;;;;5032918;28;20022;-76
2022/08/19 00:11:21;;;;;;;0.00;0.00;;;19.40;99.90;;;;;;5048263;28;20366;-76
2022/08/19 00:13:49;;;;;;;0.10;0.10;;;19.40;99.90;;;;;;5014901;28;20025;-76
2022/08/19 00:16:20;;;;;;;0.38;0.38;;;19.50;99.90;;;;;;5032769;28;20017;-76
2022/08/19 00:18:47;;;;;;;1.08;0.20;;;19.30;99.90;;;;;;5032786;28;20025;-76
2022/08/19 00:21:14;;;;;;;0.30;0.30;;;19.20;99.90;;;;;;5032749;28;20072;-76
2022/08/19 00:23:40;;;;;;;0.00;0.00;;;19.00;99.90;;;;;;5032550;28;20086;-76
2022/08/19 00:26:07;;;;;;;0.00;0.00;;;18.90;99.90;;;;;;5032559;28;20032;-76
2022/08/19 00:28:35;;;;;;;0.10;0.10;;;19.00;99.90;;;;;;5031453;28;20508;-76
2022/08/19 00:31:04;;;;;;;0.10;0.10;;;19.00;99.90;;;;;;5031391;28;20026;-76
2022/08/19 00:33:33;;;;;;;0.10;0.10;;;19.00;99.90;;;;;;5032818;28;20071;-76
2022/08/19 00:36:00;;;;;;;0.10;0.10;;;19.00;99.90;;;;;;5032465;28;20420;-76
2022/08/19 00:38:27;;;;;;;0.38;0.38;;;19.10;99.90;;;;;;5030933;28;20088;-76
2022/08/19 00:40:53;;;;;;;0.25;0.20;;;19.20;99.90;;;;;;5032551;28;20025;-76
2022/08/19 00:43:22;;;;;;;0.00;0.00;;;19.20;99.90;;;;;;5032476;28;20022;-76
2022/08/19 00:45:49;;;;;;;0.00;0.00;;;19.20;99.90;;;;;;5047594;28;20116;-76
2022/08/19 00:48:16;;;;;;;0.35;0.28;;;19.30;99.90;;;;;;5014652;28;20082;-76
2022/08/19 00:50:44;;;;;;;0.47;0.47;;;19.30;99.90;;;;;;5031027;28;20029;-76
2022/08/19 00:53:14;;;;;;;0.10;0.10;;;19.30;99.90;;;;;;5032191;28;20133;-75
2022/08/19 00:55:44;;;;;;;0.10;0.10;;;19.30;99.90;;;;;;5014427;28;20095;-76
2022/08/19 00:58:13;;;;;;;0.10;0.10;;;19.30;99.90;;;;;;5032047;28;20044;-76
2022/08/19 01:00:39;;;;;;;0.22;0.15;;;19.50;99.90;;;;;;5032071;28;20022;-76
2022/08/19 01:03:08;;;;;;;0.20;0.20;;;19.50;99.90;;;;;;5032185;28;20036;-76
2022/08/19 01:05:35;;;;;;;0.30;0.30;;;19.40;99.90;;;;;;5014051;28;20489;-76
2022/08/19 01:08:04;;;;;;;0.52;0.52;;;19.20;99.90;;;;;;5047256;28;20022;-76
2022/08/19 01:10:47;;;;;;;0.22;0.22;;;19.20;99.90;;;;;;5031997;28;20021;-76
2022/08/19 01:13:19;;;;;;;0.10;0.10;;;19.10;99.90;;;;;;5030857;28;20021;-76
2022/08/19 01:15:51;;;;;;;0.10;0.10;;;18.90;99.90;;;;;;5031885;28;20535;-76
2022/08/19 01:18:19;;;;;;;0.20;0.20;;;18.80;99.90;;;;;;5047296;28;20469;-76
2022/08/19 01:20:45;;;;;;;0.20;0.15;;;18.90;99.90;;;;;;5032336;28;20029;-76
2022/08/19 01:23:12;;;;;;;0.85;0.55;;;18.80;99.90;;;;;;5031710;28;20034;-76
2022/08/19 01:25:49;;;;;;;1.55;0.65;;;18.80;99.90;;;;;;5031899;28;20025;-76
2022/08/19 01:28:27;;;;;;;0.00;0.00;;;18.70;99.90;;;;;;5031897;28;20021;-76
2022/08/19 01:30:54;;;;;;;0.00;0.00;;;18.80;99.90;;;;;;5030674;28;20025;-76
2022/08/19 01:33:20;;;;;;;0.00;0.00;;;18.80;99.90;;;;;;5031048;28;20030;-76
2022/08/19 01:35:51;;;;;;;0.10;0.10;;;19.10;99.90;;;;;;5034559;28;20025;-76
2022/08/19 01:38:26;;;;;;;2.47;1.73;;;19.30;99.90;;;;;;5035714;28;20026;-76
2022/08/19 01:40:52;;;;;;;0.30;0.30;;;19.30;99.90;;;;;;5034671;28;20029;-76
2022/08/19 01:43:18;;;;;;;0.43;0.20;;;19.30;99.90;;;;;;5051163;28;20032;-76
2022/08/19 01:45:45;;;;;;;0.85;0.47;;;19.20;99.90;;;;;;5050996;28;20029;-76
2022/08/19 01:48:12;;;;;;;0.85;0.70;;;19.10;99.90;;;;;;5017960;28;20026;-76
2022/08/19 01:50:38;;;;;;;1.23;0.85;;;19.00;99.90;;;;;;5035531;28;20053;-75
2022/08/19 01:53:07;;;;;;;0.63;0.55;;;18.90;99.90;;;;;;5035524;28;20393;-76
2022/08/19 01:55:36;;;;;;;0.20;0.20;;;18.90;99.90;;;;;;5035424;28;20056;-76
2022/08/19 01:58:05;;;;;;;0.45;0.45;;;18.90;99.90;;;;;;5017633;28;20108;-76
2022/08/19 02:00:32;;;;;;;0.28;0.28;;;18.80;99.90;;;;;;5034302;28;20052;-76
2022/08/19 02:02:57;;;;;;;0.00;0.00;;;18.90;99.90;;;;;;5035895;28;20037;-76
2022/08/19 02:05:24;;;;;;;0.45;0.45;;;19.00;99.90;;;;;;5035017;28;20025;-76
2022/08/19 02:07:50;;;;;;;1.55;1.20;;;18.90;99.90;;;;;;5033959;28;20021;-76
2022/08/19 02:10:20;;;;;;;0.13;0.13;;;18.60;99.90;;;;;;5035236;28;20021;-76
2022/08/19 02:12:46;;;;;;;0.40;0.40;;;18.40;99.90;;;;;;5035234;28;20095;-76
2022/08/19 02:15:12;;;;;;;0.10;0.10;;;18.50;99.90;;;;;;5050511;28;20022;-76
2022/08/19 02:17:38;;;;;;;3.50;0.98;;;18.60;99.90;;;;;;5050458;28;20026;-76
2022/08/19 02:20:06;;;;;;;0.10;0.10;;;18.50;99.90;;;;;;5033751;28;20033;-76
2022/08/19 02:22:33;;;;;;;0.00;0.00;;;18.40;99.90;;;;;;5034926;28;20032;-76
2022/08/19 02:24:59;;;;;;;0.00;0.00;;;18.60;99.90;;;;;;5050131;28;20063;-76
2022/08/19 02:27:26;;;;;;;0.30;0.30;;;18.80;99.90;;;;;;5017124;28;20034;-76
2022/08/19 02:29:52;;;;;;;0.52;0.52;;;18.90;99.90;;;;;;5034856;28;20018;-76
2022/08/19 02:32:19;;;;;;;0.10;0.10;;;18.90;99.90;;;;;;5033552;28;20100;-76
2022/08/19 02:34:47;;;;;;;0.10;0.10;;;18.80;99.90;;;;;;5034999;28;20446;-76
2022/08/19 02:40:17;;;;;;;0.00;0.00;;;19.00;99.90;;;;;;5012662;28;20108;-76
2022/08/19 02:42:44;;;;;;;0.10;0.10;;;19.10;99.90;;;;;;5012474;28;20030;-76
2022/08/19 02:45:11;;;;;;;0.10;0.10;;;19.20;99.90;;;;;;5011008;28;20108;-76
2022/08/19 02:47:37;;;;;;;0.10;0.10;;;19.30;99.90;;;;;;5033412;28;20044;-76
2022/08/19 02:50:04;;;;;;;0.10;0.10;;;19.30;99.90;;;;;;5034416;28;20396;-76
2022/08/19 02:52:32;;;;;;;0.20;0.20;;;19.40;99.90;;;;;;5033409;28;20029;-76
2022/08/19 02:54:57;;;;;;;0.00;0.00;;;19.30;99.90;;;;;;5032989;28;20021;-76
2022/08/19 02:57:24;;;;;;;0.17;0.17;;;19.20;99.90;;;;;;5049664;28;20534;-76
2022/08/19 02:59:50;;;;;;;0.10;0.10;;;19.00;99.90;;;;;;5034305;28;20547;-76
2022/08/19 03:02:16;;;;;;;0.10;0.10;;;18.90;99.90;;;;;;5034634;28;20022;-76
2022/08/19 03:04:42;;;;;;;0.30;0.30;;;18.90;99.90;;;;;;5032957;28;20108;-76
2022/08/19 03:07:09;;;;;;;0.73;0.20;;;18.70;99.90;;;;;;5034115;28;20025;-76
2022/08/19 03:09:37;;;;;;;0.10;0.10;;;18.70;99.90;;;;;;5034023;28;20032;-76
2022/08/19 03:12:04;;;;;;;1.55;0.55;;;18.60;99.90;;;;;;5034175;28;20381;-76
2022/08/19 03:14:31;;;;;;;0.55;0.47;;;18.60;99.90;;;;;;5049495;28;20527;-76
2022/08/19 03:16:57;;;;;;;0.10;0.10;;;18.70;99.90;;;;;;5034179;28;20536;-76
2022/08/19 03:19:24;;;;;;;0.00;0.00;;;18.50;99.90;;;;;;5032906;28;20052;-76
2022/08/19 03:21:50;;;;;;;0.10;0.10;;;18.50;99.90;;;;;;5015813;28;20049;-76
2022/08/19 03:24:18;;;;;;;0.13;0.10;;;18.50;99.90;;;;;;5049286;28;20418;-76
2022/08/19 03:26:51;;;;;;;0.10;0.10;;;18.50;99.90;;;;;;5048998;28;20481;-76
2022/08/19 03:29:17;;;;;;;0.10;0.10;;;18.50;99.90;;;;;;5032543;28;20025;-76
2022/08/19 03:31:44;;;;;;;0.10;0.10;;;18.60;99.90;;;;;;5016009;28;20093;-76
2022/08/19 03:34:12;;;;;;;0.10;0.10;;;18.50;99.90;;;;;;5032435;28;20104;-76
2022/08/19 03:36:38;;;;;;;0.30;0.20;;;18.50;99.90;;;;;;5033611;28;20096;-76
2022/08/19 03:39:04;;;;;;;0.70;0.70;;;18.50;99.90;;;;;;5033614;28;20109;-76
2022/08/19 03:41:33;;;;;;;0.10;0.10;;;18.50;99.90;;;;;;5048876;28;20030;-76
2022/08/19 03:43:59;;;;;;;0.00;0.00;;;18.40;99.90;;;;;;5032345;28;20048;-76
2022/08/19 03:46:29;;;;;;;0.00;0.00;;;18.50;99.90;;;;;;5032126;28;20029;-76
2022/08/19 03:48:57;;;;;;;0.10;0.10;;;18.60;99.90;;;;;;5048530;28;20055;-76
2022/08/19 03:51:30;;;;;;;0.00;0.00;;;18.70;99.90;;;;;;5015560;28;20028;-76
2022/08/19 03:53:58;;;;;;;0.10;0.10;;;18.70;99.90;;;;;;5033333;28;20021;-76
2022/08/19 03:56:25;;;;;;;0.10;0.10;;;18.80;99.90;;;;;;5032824;28;20026;-76
2022/08/19 03:58:52;;;;;;;0.10;0.10;;;18.80;99.90;;;;;;5033093;28;20037;-76
2022/08/19 04:01:20;;;;;;;0.10;0.10;;;19.00;99.90;;;;;;5015313;28;20028;-76
2022/08/19 04:03:47;;;;;;;0.10;0.10;;;18.90;99.90;;;;;;5031914;28;20026;-76
2022/08/19 04:06:21;;;;;;;0.10;0.10;;;18.90;99.90;;;;;;5032933;28;20104;-76
2022/08/19 04:08:50;;;;;;;0.10;0.10;;;18.90;99.90;;;;;;5031803;28;20385;-76
2022/08/19 04:11:22;;;;;;;0.10;0.10;;;19.00;99.90;;;;;;5032903;28;20025;-76
2022/08/19 04:13:50;;;;;;;0.20;0.20;;;19.00;99.90;;;;;;5015253;28;20034;-76
2022/08/19 04:16:17;;;;;;;2.63;0.40;;;18.80;99.90;;;;;;5032773;28;20107;-76
2022/08/19 04:18:43;;;;;;;0.10;0.10;;;18.70;99.90;;;;;;5032752;28;20029;-76
2022/08/19 04:21:19;;;;;;;0.10;0.10;;;18.50;99.90;;;;;;5031623;28;20033;-76
2022/08/19 04:23:46;;;;;;;0.20;0.20;;;18.50;99.90;;;;;;5032503;28;20033;-76
2022/08/19 04:26:15;;;;;;;0.20;0.20;;;18.50;99.90;;;;;;5032666;28;20480;-76
2022/08/19 04:28:44;;;;;;;0.10;0.10;;;18.50;99.90;;;;;;5014884;28;20554;-76
2022/08/19 04:31:19;;;;;;;0.05;0.05;;;18.60;99.90;;;;;;5031416;28;20374;-76
2022/08/19 04:33:45;;;;;;;0.00;0.00;;;18.70;99.90;;;;;;5032593;28;20025;-76
2022/08/19 04:36:20;;;;;;;0.10;0.10;;;19.00;99.90;;;;;;5032405;28;20096;-76
2022/08/19 04:38:48;;;;;;;0.10;0.10;;;19.10;99.90;;;;;;5055496;22;20040;-72
2022/08/19 04:43:58;;;;;;;0.05;0.05;;;19.40;99.90;;;;;;5052139;28;20220;-72
2022/08/19 04:46:24;;;;;;;0.20;0.20;;;19.30;99.90;;;;;;5052115;28;20515;-72
2022/08/19 04:48:49;;;;;;;0.10;0.10;;;19.10;99.90;;;;;;5053447;28;20472;-72
2022/08/19 04:51:16;;;;;;;0.22;0.22;;;18.80;99.90;;;;;;5051891;28;20060;-72
2022/08/19 04:53:42;;;;;;;0.10;0.10;;;18.70;99.90;;;;;;5052146;28;20086;-71
2022/08/19 04:56:14;;;;;;;0.10;0.10;;;18.70;99.90;;;;;;5035262;28;20021;-72
2022/08/19 04:58:42;;;;;;;0.10;0.10;;;18.80;99.90;;;;;;5051774;28;20100;-72
2022/08/19 05:01:12;;;;;;;0.10;0.10;;;19.00;99.90;;;;;;5051746;28;20124;-72
2022/08/19 05:03:39;;;;;;;0.10;0.10;;;19.10;99.90;;;;;;5052779;28;20024;-72
2022/08/19 05:06:08;;;;;;;0.32;0.32;;;19.30;99.90;;;;;;5052405;28;20021;-72
2022/08/19 05:08:36;;;;;;;0.00;0.00;;;19.30;99.90;;;;;;5051932;28;20025;-73
2022/08/19 05:11:12;;;;;;;0.00;0.00;;;19.20;99.90;;;;;;5051806;28;20033;-72
2022/08/19 05:13:38;;;;;;;0.08;0.08;;;19.20;99.90;;;;;;5051502;28;20512;-72
2022/08/19 05:16:04;;;;;;;0.00;0.00;;;19.20;99.90;;;;;;5052502;28;20013;-72
2022/08/19 05:24:03;;;;;;;0.10;0.10;;;19.10;99.90;;;;;;5052576;28;20025;-72
2022/08/19 05:26:29;;;;;;;0.00;0.00;;;19.00;99.90;;;;;;5050660;28;20069;-72
2022/08/19 05:28:55;;;;;;;0.00;0.00;;;19.00;99.90;;;;;;5036642;28;20115;-72
2022/08/19 05:31:21;;;;;;;0.00;0.00;;;19.00;99.90;;;;;;5033628;28;20514;-72
2022/08/19 05:33:49;;;;;;;0.10;0.10;;;19.20;99.90;;;;;;5043711;28;20056;-72
2022/08/19 05:36:15;;;;;;;0.00;0.00;;;19.30;99.90;;;;;;5041202;28;20028;-72
2022/08/19 05:38:41;;;;;;;0.10;0.10;;;19.50;99.90;;;;;;5014824;28;20417;-73
2022/08/19 05:41:10;;;;;;;0.10;0.10;;;19.80;99.90;;;;;;5046674;28;20379;-72
2022/08/19 05:43:37;;;;;;;0.00;0.00;;;19.80;99.90;;;;;;5036474;28;20068;-72
2022/08/19 05:46:07;;;;;;;0.10;0.10;;;19.70;99.90;;;;;;5032118;28;20543;-72
2022/08/19 05:48:34;;;;;;;0.10;0.10;;;19.60;99.90;;;;;;5045613;28;20059;-72
2022/08/19 05:51:06;;;;;;;0.10;0.10;;;19.60;99.90;;;;;;5050011;28;20055;-72
2022/08/19 05:53:33;;;;;;;0.10;0.10;;;19.50;99.90;;;;;;5051527;28;20045;-72
2022/08/19 05:56:07;;;;;;;0.00;0.00;;;19.60;99.90;;;;;;5035905;28;20025;-72
2022/08/19 05:58:34;;;;;;;0.10;0.10;;;19.70;99.90;;;;;;5031559;28;20052;-72
2022/08/19 06:01:04;;;;;;;0.03;0.03;;;19.80;99.90;;;;;;5034700;28;20488;-72
2022/08/19 06:03:33;;;;;;;0.00;0.00;;;19.80;99.90;;;;;;5045973;28;20354;-72
2022/08/19 06:05:59;;;;;;;0.00;0.00;;;19.60;99.90;;;;;;5038885;28;20031;-72
2022/08/19 06:08:28;;;;;;;0.00;0.00;;;19.60;99.90;;;;;;5050321;28;20029;-72
2022/08/19 06:10:55;;;;;;;0.20;0.20;;;19.40;99.90;;;;;;5050336;28;20043;-73
2022/08/19 06:13:22;;;;;;;0.08;0.08;;;19.50;99.90;;;;;;5050506;28;20551;-72
2022/08/19 06:15:48;;;;;;;0.90;0.90;;;19.60;99.90;;;;;;5033504;28;20132;-72
2022/08/19 06:18:15;;;;;;;0.00;0.00;;;19.80;99.90;;;;;;5050019;28;20183;-72
2022/08/19 06:20:41;;;;;;;0.00;0.00;;;19.90;99.90;;;;;;5046121;28;20037;-72
2022/08/19 06:23:08;;;;;;;0.32;0.32;;;19.70;99.90;;;;;;5035111;28;20030;-72
2022/08/19 06:25:35;;;;;;;0.20;0.20;;;19.60;99.90;;;;;;5017122;28;20036;-72
2022/08/19 06:28:01;;;;;;;0.00;0.00;;;19.60;99.90;;;;;;5035024;28;20388;-72
2022/08/19 06:30:28;;;;;;;0.00;0.00;;;19.70;99.90;;;;;;5017083;28;20503;-72
2022/08/19 06:32:53;;;;;;;0.10;0.10;;;19.60;99.90;;;;;;5034696;28;20524;-72
2022/08/19 06:35:19;;;;;;;0.15;0.15;;;19.40;99.90;;;;;;5039121;28;20123;-72
2022/08/19 06:37:45;;;;;;;0.10;0.10;;;19.40;99.90;;;;;;5053269;28;20021;-72
2022/08/19 06:40:12;;;;;;;0.10;0.10;;;19.40;99.90;;;;;;5045322;28;20103;-72
2022/08/19 06:42:38;;;;;;;0.10;0.10;;;19.50;99.90;;;;;;5034651;28;20108;-72
2022/08/19 06:45:05;;;;;;;0.00;0.00;;;19.70;99.90;;;;;;5033139;28;20126;-72
2022/08/19 06:47:34;;;;;;;0.00;0.00;;;19.60;99.90;;;;;;5034409;28;20060;-72
2022/08/19 06:50:02;;;;;;;0.05;0.05;;;19.70;99.90;;;;;;5032995;28;20060;-72
2022/08/19 06:52:33;;;;;;;0.00;0.00;;;19.60;99.90;;;;;;5033237;28;20050;-71
2022/08/19 06:54:59;;;;;;;0.30;0.30;;;19.30;99.90;;;;;;5034513;28;20096;-72
2022/08/19 06:57:26;;;;;;;0.20;0.20;;;19.40;99.90;;;;;;5034202;28;20096;-72
2022/08/19 06:59:52;;;;;;;0.00;0.00;;;19.40;99.90;;;;;;5034472;28;20029;-76
2022/08/19 07:02:20;;;;;;;0.00;0.00;;;19.60;99.90;;;;;;5030395;28;20203;-76
2022/08/19 07:04:45;;;;;;;0.00;0.00;;;19.40;99.90;;;;;;5031378;28;20061;-75
2022/08/19 07:07:14;;;;;;;0.00;0.00;;;19.50;99.90;;;;;;5029281;28;20124;-76
2022/08/19 07:09:43;;;;;;;0.10;0.10;;;19.70;99.90;;;;;;5033716;28;20511;-76
2022/08/19 07:12:11;;;;;;;1.95;1.42;;;19.80;99.90;;;;;;5031246;28;20175;-74
2022/08/19 07:14:39;;;;;;;0.00;0.00;;;19.80;99.90;;;;;;5033413;28;20021;-76
2022/08/19 07:17:08;;;;;;;0.17;0.17;;;19.60;99.90;;;;;;5032125;28;20079;-76
2022/08/19 07:19:34;;;;;;;0.30;0.30;;;19.70;99.90;;;;;;5013196;28;20022;-76
2022/08/19 07:22:02;;;;;;;2.03;1.88;;;19.40;99.90;;;;;;5030648;28;20373;-75
2022/08/19 07:24:29;;;;;;;0.00;0.00;;;19.30;99.90;;;;;;5030158;28;20506;-76
2022/08/19 07:27:00;;;;;;;1.27;1.17;;;19.40;99.90;;;;;;5021342;28;20013;-75
2022/08/19 07:29:28;;;;;;;0.00;0.00;;;19.20;99.90;;;;;;5030738;28;20013;-76
2022/08/19 07:31:58;;;;;;;0.10;0.10;;;19.20;99.90;;;;;;5029681;28;20036;-74
2022/08/19 07:34:25;;;;;;;0.20;0.20;;;19.30;99.90;;;;;;5031125;28;20033;-75
2022/08/19 07:36:52;;;;;;;0.00;0.00;;;19.30;99.90;;;;;;5031580;28;20109;-76
2022/08/19 07:39:25;;;;;;;1.25;0.47;;;19.40;99.90;;;;;;5013106;28;20041;-76
2022/08/19 07:41:51;;;;;;;0.63;0.38;;;19.60;99.90;;;;;;5056080;28;20056;-76
2022/08/19 07:44:20;;;;;;;0.63;0.63;;;19.60;99.90;;;;;;5034523;28;20037;-76
2022/08/19 07:46:52;;;;;;;2.05;1.40;;;19.30;99.90;;;;;;5017802;28;20033;-75
2022/08/19 07:49:20;;;;;;;0.00;0.00;;;19.10;99.90;;;;;;5039181;28;20026;-75
2022/08/19 07:52:01;;;;;;;0.75;0.10;;;19.20;99.90;;;;;;5031604;28;20496;-75
2022/08/19 07:54:29;;;;;;;0.20;0.20;;;19.50;99.90;;;;;;5035929;28;20370;-75
2022/08/19 07:56:55;;;;;;;2.50;2.30;;;19.50;99.90;;;;;;5034244;28;20021;-76
2022/08/19 07:59:24;;;;;;;0.00;0.00;;;19.70;99.90;;;;;;5032250;28;20030;-76
2022/08/19 08:01:51;;;;;;;0.00;0.00;;;19.80;99.90;;;;;;5035277;28;20032;-76
2022/08/19 08:09:49;;;;;;;0.00;0.00;;;20.10;99.90;;;;;;5040745;28;20110;-77
2022/08/19 08:12:27;;;;;;;0.10;0.10;;;20.10;99.90;;;;;;5040675;28;20032;-77
2022/08/19 08:14:55;;;;;;;0.85;0.63;;;19.80;99.90;;;;;;5041626;28;20021;-78
2022/08/19 08:17:26;;;;;;;2.20;1.27;;;19.80;99.90;;;;;;5021079;28;20076;-78
2022/08/19 08:19:52;;;;;;;1.33;1.33;;;19.80;99.90;;;;;;5036629;28;20021;-77
2022/08/19 08:25:10;;;;;;;0.00;0.00;;;19.80;99.90;;;;;;5041379;28;20075;-78
2022/08/19 08:27:40;;;;;;;0.00;0.00;;;19.60;99.90;;;;;;5047240;28;20049;-78
2022/08/19 08:30:09;;;;;;;0.00;0.00;;;19.80;99.90;;;;;;5043908;28;20091;-75
2022/08/19 08:32:41;;;;;;;0.00;0.00;;;19.90;99.90;;;;;;5028537;28;20032;-79
2022/08/19 08:35:11;;;;;;;0.00;0.00;;;20.00;99.90;;;;;;5022474;28;20087;-79
2022/08/19 08:37:37;;;;;;;0.30;0.30;;;20.00;99.90;;;;;;5033234;28;20026;-76
2022/08/19 08:40:09;;;;;;;1.45;0.63;;;20.00;99.90;;;;;;5033785;28;20037;-78
2022/08/19 08:42:43;;;;;;;0.00;0.00;;;19.90;99.90;;;;;;5040447;28;20039;-77
2022/08/19 08:45:16;;;;;;;0.22;0.22;;;20.00;99.90;;;;;;5039498;28;20044;-78
2022/08/19 08:47:47;;;;;;;2.25;0.20;;;20.00;99.90;;;;;;5046154;28;20033;-78
2022/08/19 08:50:28;;;;;;;2.65;0.57;;;19.80;99.90;;;;;;5040010;28;20168;-78
2022/08/19 08:52:57;;;;;;;0.00;0.00;;;19.90;99.90;;;;;;5022385;28;20060;-78
2022/08/19 08:55:28;;;;;;;0.00;0.00;;;20.00;99.90;;;;;;5037961;28;20021;-78
2022/08/19 08:58:15;;;;;;;0.00;0.00;;;20.00;99.90;;;;;;5041086;28;20445;-78
2022/08/19 09:00:47;;;;;;;1.00;1.00;;;20.00;99.90;;;;;;5037104;28;20072;-77
2022/08/19 09:03:22;;;;;;;0.05;0.05;;;20.20;99.90;;;;;;5061544;28;20036;-78
2022/08/19 09:06:31;;;;;;;3.03;0.25;;;20.40;99.90;;;;;;5045460;28;20413;-77
2022/08/19 09:09:18;;;;;;;13.70;2.70;;;20.50;99.90;;;;;;5036226;28;20552;-78
2022/08/19 09:11:51;;;;;;;1.55;1.35;;;20.30;99.90;;;;;;5039529;28;20582;-78
2022/08/19 09:14:34;;;;;;;0.45;0.45;;;20.30;99.90;;;;;;5037527;28;20025;-78
2022/08/19 09:17:03;;;;;;;1.75;1.02;;;20.10;99.90;;;;;;5061406;28;20104;-77
2022/08/19 09:19:29;;;;;;;0.63;0.63;;;20.00;99.90;;;;;;5036644;28;20147;-78
2022/08/19 09:21:56;;;;;;;2.42;2.15;;;19.70;99.90;;;;;;5036344;28;20021;-78
2022/08/19 09:24:21;;;;;;;2.10;1.40;;;19.60;99.90;;;;;;5038374;28;20487;-77
2022/08/19 09:26:47;;;;;;;3.35;1.88;;;19.40;99.90;;;;;;5035185;28;20029;-76
2022/08/19 09:29:13;;;;;;;0.00;0.00;;;19.30;99.90;;;;;;5037176;28;20096;-78
2022/08/19 09:31:39;;;;;;;0.63;0.57;;;19.40;99.90;;;;;;5037697;28;20093;-78
2022/08/19 09:34:05;;;;;;;0.30;0.30;;;19.40;99.90;;;;;;5036968;28;20422;-77
2022/08/19 09:36:33;;;;;;;0.40;0.15;;;19.60;99.90;;;;;;5036679;28;20040;-76
2022/08/19 09:39:00;;;;;;;0.00;0.00;;;19.50;99.90;;;;;;5037383;28;20087;-77
2022/08/19 09:41:26;;;;;;;0.00;0.00;;;19.60;99.90;;;;;;5035754;28;20029;-78
2022/08/19 09:43:57;;;;;;;0.00;0.00;;;20.00;99.90;;;;;;5035673;28;20034;-79
2022/08/19 09:46:25;;;;;;;1.45;1.05;;;20.20;99.90;;;;;;5018405;28;20036;-78
2022/08/19 09:48:52;;;;;;;0.20;0.20;;;20.50;99.90;;;;;;5020937;28;20033;-78
2022/08/19 09:51:23;;;;;;;0.52;0.52;;;20.70;99.90;;;;;;5034458;28;20033;-78
2022/08/19 09:53:51;;;;;;;2.28;1.75;;;21.00;99.90;;;;;;5035972;28;20559;-78
2022/08/19 09:56:19;;;;;;;0.00;0.00;;;21.00;99.90;;;;;;5038232;28;20124;-78
2022/08/19 09:58:45;;;;;;;0.28;0.28;;;20.90;99.90;;;;;;5041641;28;20036;-77
2022/08/19 10:01:18;;;;;;;1.60;0.55;;;20.70;99.90;;;;;;5024213;28;20028;-79
2022/08/19 10:03:46;;;;;;;0.35;0.35;;;20.60;99.90;;;;;;5039561;28;20056;-79
2022/08/19 10:06:12;;;;;;;0.00;0.00;;;20.60;99.90;;;;;;5040927;28;20120;-79
2022/08/19 10:08:39;;;;;;;0.90;0.90;;;20.30;99.90;;;;;;5024311;28;20033;-78
2022/08/19 10:11:05;;;;;;;1.13;1.08;;;20.00;99.90;;;;;;5038389;28;20028;-77
2022/08/19 10:13:34;;;;;;;6.78;1.08;;;19.90;99.90;;;;;;5021359;28;20045;-75
2022/08/19 10:16:07;;;;;;;0.10;0.10;;;20.00;99.90;;;;;;5030026;28;20432;-74
2022/08/19 10:18:34;;;;;;;2.88;1.27;;;20.30;99.90;;;;;;5029512;28;20029;-74
2022/08/19 10:21:27;;;;;;;0.00;0.00;;;20.50;99.90;;;;;;5027149;28;20124;-75
2022/08/19 10:23:57;;;;;;;2.05;1.85;;;20.80;99.90;;;;;;5031059;28;20040;-74
2022/08/19 10:26:29;;;;;;;0.20;0.20;;;21.20;99.90;;;;;;5031612;28;20043;-73
2022/08/19 10:28:57;;;;;;;0.10;0.10;;;21.20;99.90;;;;;;5030877;28;20033;-74
2022/08/19 10:31:25;;;;;;;4.90;1.23;;;21.30;99.90;;;;;;5033742;28;20103;-74
2022/08/19 10:33:57;;;;;;;0.00;0.00;;;21.70;99.90;;;;;;5014146;28;20400;-74
2022/08/19 10:36:24;;;;;;;;;;;22.00;99.90;;;;;;5013033;28;20233;-74
2022/08/19 10:38:52;;;;;;;1.38;1.27;;;22.10;99.90;;;;;;5096552;23;19927;-73
2022/08/19 10:41:24;;;;;;;0.10;0.10;;;21.80;99.90;;;;;;5022338;28;20031;-73
2022/08/19 10:43:54;;;;;;;0.47;0.47;;;21.60;99.90;;;;;;5040298;28;20039;-73
2022/08/19 10:46:21;;;;;;;0.00;0.00;;;21.70;99.90;;;;;;5022464;28;20075;-73
2022/08/19 10:48:47;;;;;;;0.80;0.32;;;22.30;99.90;;;;;;5022991;28;20021;-73
2022/08/19 10:53:58;;;;;;;3.00;2.05;;;22.80;99.90;;;;;;5041254;28;20032;-70
2022/08/19 10:59:11;;;;;;;1.23;1.13;;;23.10;99.90;;;;;;5054096;28;20480;-71
2022/08/19 11:01:37;;;;;;;0.10;0.10;;;23.20;99.90;;;;;;5052982;28;20033;-72
2022/08/19 11:04:04;;;;;;;0.80;0.52;;;23.00;99.90;;;;;;5052395;28;20037;-71
2022/08/19 11:06:33;;;;;;;0.00;0.00;;;23.00;99.90;;;;;;5051434;28;20025;-71
2022/08/19 11:08:59;;;;;;;0.10;0.10;;;23.10;99.90;;;;;;5052316;28;20039;-71
2022/08/19 11:11:26;;;;;;;2.00;0.75;;;23.00;99.90;;;;;;5051784;28;20025;-71
2022/08/19 11:13:52;;;;;;;1.20;1.10;;;22.80;99.90;;;;;;5050499;28;20045;-72
2022/08/19 11:16:21;;;;;;;0.00;0.00;;;22.50;99.90;;;;;;5051673;28;20478;-71
2022/08/19 11:18:53;;;;;;;0.00;0.00;;;22.50;99.90;;;;;;5053448;28;20036;-72
2022/08/19 11:21:23;;;;;;;1.75;1.65;;;23.40;99.90;;;;;;5053504;28;20064;-73
2022/08/19 11:23:52;;;;;;;0.20;0.20;;;24.00;99.90;;;;;;5052326;28;20025;-71
2022/08/19 11:26:19;;;;;;;0.90;0.43;;;24.10;99.90;;;;;;5052888;28;20105;-71
2022/08/19 11:28:45;;;;;;;0.22;0.22;;;24.70;99.90;;;;;;5052113;28;20028;-73
2022/08/19 11:31:19;;;;;;;0.05;0.05;;;25.00;99.90;;;;;;5053076;28;20059;-72
2022/08/19 11:33:46;;;;;;;0.50;0.50;;;25.10;99.90;;;;;;5034888;28;20021;-72
2022/08/19 11:36:12;;;;;;;0.00;0.00;;;25.10;99.90;;;;;;5052921;28;20013;-72
2022/08/19 11:38:38;;;;;;;1.55;0.73;;;24.70;99.90;;;;;;5051710;28;20535;-72
2022/08/19 11:41:07;;;;;;;1.92;0.63;;;24.60;99.90;;;;;;5052028;28;20124;-72
2022/08/19 11:43:37;;;;;;;0.22;0.22;;;23.70;99.90;;;;;;5051904;28;20033;-71
2022/08/19 11:46:11;;;;;;;0.10;0.10;;;23.50;99.90;;;;;;5052997;28;20025;-72
2022/08/19 11:48:38;;;;;;;0.00;0.00;;;23.50;99.90;;;;;;5052860;28;20156;-72
2022/08/19 11:51:07;;;;;;;2.60;1.65;;;23.70;99.90;;;;;;5053188;28;20036;-72
2022/08/19 11:53:34;;;;;;;0.10;0.10;;;23.90;99.90;;;;;;5051834;28;20025;-71
2022/08/19 11:56:00;;;;;;;0.15;0.15;;;24.00;99.90;;;;;;5051837;28;20100;-71
2022/08/19 11:58:26;;;;;;;2.83;1.77;;;24.20;99.90;;;;;;5052972;28;20028;-72
2022/08/19 12:00:52;;;;;;;1.73;0.55;;;24.70;99.90;;;;;;5052315;28;20104;-72
2022/08/19 12:03:19;;;;;;;0.65;0.43;;;25.00;99.90;;;;;;5051829;28;20032;-72
2022/08/19 12:05:46;;;;;;;1.55;0.50;;;25.00;99.90;;;;;;5052923;28;20399;-71
2022/08/19 12:08:12;;;;;;;0.20;0.20;;;24.60;99.90;;;;;;5052085;28;20021;-72
2022/08/19 12:10:40;;;;;;;3.05;1.27;;;24.80;99.90;;;;;;5052445;28;20543;-72
2022/08/19 12:13:06;;;;;;;0.00;0.00;;;24.90;99.90;;;;;;5051520;28;20492;-72
2022/08/19 12:15:42;;;;;;;0.20;0.20;;;24.90;99.90;;;;;;5052377;28;20057;-73
2022/08/19 12:18:09;;;;;;;1.80;0.65;;;24.60;99.90;;;;;;5052614;28;20135;-73
2022/08/19 12:20:37;;;;;;;0.43;0.25;;;24.20;99.90;;;;;;5052782;28;20435;-73
2022/08/19 12:23:04;;;;;;;0.17;0.17;;;24.00;99.90;;;;;;5052701;28;20507;-74
2022/08/19 12:25:31;;;;;;;0.00;0.00;;;24.10;99.90;;;;;;5052393;28;20033;-73
2022/08/19 12:27:58;;;;;;;0.10;0.10;;;24.00;99.90;;;;;;5051283;28;20025;-73
2022/08/19 12:30:24;;;;;;;0.47;0.47;;;23.90;99.90;;;;;;5051151;28;20712;-73
2022/08/19 12:32:51;;;;;;;0.20;0.20;;;23.70;99.90;;;;;;5052664;28;20384;-73
2022/08/19 12:35:19;;;;;;;0.55;0.32;;;24.10;99.90;;;;;;5052346;28;20078;-73
2022/08/19 12:37:46;;;;;;;0.47;0.47;;;24.30;99.90;;;;;;5052283;28;20048;-73
2022/08/19 12:40:14;;;;;;;0.75;0.60;;;24.70;99.90;;;;;;5052358;28;20021;-74
2022/08/19 12:42:43;;;;;;;0.80;0.75;;;24.60;99.90;;;;;;5052223;28;20132;-75
2022/08/19 12:45:10;;;;;;;0.10;0.10;;;24.60;99.90;;;;;;5052094;28;20104;-74
2022/08/19 12:47:37;;;;;;;0.10;0.10;;;24.40;99.90;;;;;;5052060;28;20049;-74
2022/08/19 12:50:08;;;;;;;0.00;0.00;;;24.30;99.90;;;;;;5050706;28;20025;-74
2022/08/19 12:52:37;;;;;;;0.15;0.10;;;24.40;99.90;;;;;;5052110;28;20028;-74
2022/08/19 12:55:06;;;;;;;1.65;0.82;;;24.60;99.90;;;;;;5050765;28;20027;-73
2022/08/19 12:57:33;;;;;;;0.60;0.60;;;24.30;99.90;;;;;;5050569;28;20082;-73
2022/08/19 13:00:13;;;;;;;0.00;0.00;;;24.40;99.90;;;;;;5051984;28;20021;-73
2022/08/19 13:02:41;;;;;;;0.75;0.70;;;24.30;99.90;;;;;;5050212;28;20060;-73
2022/08/19 13:05:09;;;;;;;1.75;0.93;;;24.50;99.90;;;;;;5050164;28;20112;-73
2022/08/19 13:07:37;;;;;;;1.67;1.33;;;24.40;99.90;;;;;;5033450;28;20069;-73
2022/08/19 13:10:04;;;;;;;1.00;0.85;;;24.00;99.90;;;;;;5050116;28;20025;-75
2022/08/19 13:12:29;;;;;;;0.30;0.30;;;24.10;99.90;;;;;;5051834;28;20021;-73
2022/08/19 13:14:55;;;;;;;1.00;0.40;;;24.00;99.90;;;;;;5051653;28;20024;-72
2022/08/19 13:17:21;;;;;;;0.13;0.13;;;23.90;99.90;;;;;;5050354;28;20025;-73
2022/08/19 13:19:47;;;;;;;1.00;0.30;;;23.80;99.90;;;;;;5051415;28;20384;-73